KDEN

Denver International Airport

Denver, Colorado, USA
METAR KDEN 240153Z 02009KT 10SM FEW120 SCT150 SCT220 22/07 A2995 RMK AO2 SLP073 T02170067
Observed Flight Rules
May-24 @ 01:53 UTC (22 minutes ago) Visual Flight Rules
Wind Visibility Clouds
20° at 9 knots 10 miles
  • Few at 12,000' AGL
  • Scattered at 15,000' AGL
  • Scattered at 22,000' AGL
Temperatures Readings
Current 22°C / 72°F
Dewpoint 7°C / 45°F
Humidity 38%
Altimeter 29.95" Hg
Pressure 1007.3 hPa
Elevation 1640
METAR KDEN 240153Z 02009KT 10SM FEW120 SCT150 SCT220 22/07 A2995 RMK AO2 SLP073 T02170067
Observed Flight Rules
May-24 @ 01:53 UTC
(22 minutes ago)
VFR
Wind Visibility
20° at 9 knots 10 miles
Clouds
  • Few at 12,000' AGL
  • Scattered at 15,000' AGL
  • Scattered at 22,000' AGL
Temperature Dewpoint
22°C / 72°F 7°C / 45°F
Humidity Altimeter Pressure
38% 29.95" Hg 1007.3 hPa